Weather at Ottawa / Gatineau Airport

Public forecast

Using degrees Celsius for public forecast. Weather courtesy of forecast.io.

Current aviation weather report (METAR) for Ottawa / Gatineau Airport

Report is more than 2 hours old.

2024/07/23 01:00 (retrieved 3 hours ago)

CYND 230100Z 03003KT 15SM FEW055 FEW150 BKN240 20/16 A2999 RMK CU1AC1CI6 CU TR AC TR LAST STFD OBS/NXT 231100Z SLP157 DENSITY ALT 800FT

Aviation forecast (TAF) for Ottawa / Gatineau Airport

Forecast is more than 6 hours old.

2024/07/22 18:00 (retrieved 10 hours ago)

TAF CYND 221740Z 2218/2301 29008KT P6SM FEW050 FEW240 BECMG 2222/2224 VRB03KT RMK NXT FCST BY 231300Z